createdAt,value
2019-01-21T00:00:32.985Z,-2.90
2019-01-21T00:03:21.375Z,-3.10
2019-01-21T00:06:09.301Z,-3.20
2019-01-21T00:08:57.093Z,-3.30
2019-01-21T00:11:45.193Z,-3.40
2019-01-21T00:14:33.285Z,-3.40
2019-01-21T00:17:22.382Z,-3.60
2019-01-21T00:20:10.342Z,-3.70
2019-01-21T00:22:58.271Z,-3.70
2019-01-21T00:25:45.987Z,-3.80
2019-01-21T00:28:33.757Z,-3.90
2019-01-21T00:31:21.545Z,-3.90
2019-01-21T00:34:09.164Z,-3.90
2019-01-21T00:37:03.510Z,-3.80
2019-01-21T00:39:46.504Z,-3.90
2019-01-21T00:42:34.271Z,-4.00
2019-01-21T00:45:41.292Z,-4.00
2019-01-21T00:48:28.861Z,-4.10
2019-01-21T00:51:16.943Z,-4.10
2019-01-21T00:54:04.874Z,-4.20
2019-01-21T00:56:52.804Z,-4.20
2019-01-21T00:59:40.492Z,-4.30
2019-01-21T01:02:28.616Z,-4.30
2019-01-21T01:05:16.885Z,-4.30
2019-01-21T01:08:04.905Z,-4.40
2019-01-21T01:10:52.672Z,-4.40
2019-01-21T01:13:40.905Z,-4.40
2019-01-21T01:16:28.817Z,-4.40
2019-01-21T01:19:16.447Z,-4.40
2019-01-21T01:22:04.303Z,-4.30
2019-01-21T01:24:52.047Z,-4.40
2019-01-21T01:27:39.742Z,-4.40
2019-01-21T01:30:27.446Z,-4.50
2019-01-21T01:33:15.415Z,-4.40
2019-01-21T01:36:03.209Z,-4.50
2019-01-21T01:38:50.953Z,-4.40
2019-01-21T01:41:38.881Z,-4.40
2019-01-21T01:44:26.924Z,-4.50
2019-01-21T01:47:14.893Z,-4.50
2019-01-21T01:50:03.974Z,-4.60
2019-01-21T01:52:51.571Z,-4.50
2019-01-21T01:55:39.558Z,-4.60
2019-01-21T01:58:27.673Z,-4.60
2019-01-21T02:01:15.259Z,-4.60
2019-01-21T02:04:03.498Z,-4.70
2019-01-21T02:06:51.265Z,-4.70
2019-01-21T02:09:39.505Z,-4.70
2019-01-21T02:12:27.181Z,-4.70
2019-01-21T02:15:16.379Z,-4.60
2019-01-21T02:18:04.198Z,-4.50
2019-01-21T02:20:55.801Z,-4.40
2019-01-21T02:23:45.329Z,-4.30
2019-01-21T02:26:35.517Z,-4.30
2019-01-21T02:29:26.473Z,-4.20
2019-01-21T02:32:38.464Z,-4.10
2019-01-21T02:35:32.289Z,-4.10
2019-01-21T02:38:34.936Z,-4.00
2019-01-21T02:41:26.162Z,-4.00
2019-01-21T02:44:23.010Z,-4.00
2019-01-21T02:47:16.578Z,-4.00
2019-01-21T02:50:25.416Z,-4.00
2019-01-21T02:53:19.094Z,-3.80
2019-01-21T02:56:16.965Z,-3.70
2019-01-21T02:59:19.758Z,-3.70
2019-01-21T03:02:16.746Z,-3.90
2019-01-21T03:05:38.091Z,-4.00
2019-01-21T03:08:29.025Z,-3.90
2019-01-21T03:11:48.474Z,-4.00
2019-01-21T03:15:01.976Z,-4.10
2019-01-21T03:17:58.666Z,-4.20
2019-01-21T03:21:07.973Z,-4.30
2019-01-21T03:24:07.286Z,-4.40
2019-01-21T03:27:01.040Z,-4.50
2019-01-21T03:30:01.164Z,-4.60
2019-01-21T03:32:57.652Z,-4.70
2019-01-21T03:35:51.967Z,-4.80
2019-01-21T03:39:05.191Z,-5.00
2019-01-21T03:41:59.373Z,-5.00
2019-01-21T03:45:24.050Z,-5.10
2019-01-21T03:48:24.472Z,-5.10
2019-01-21T03:51:37.799Z,-5.20
2019-01-21T03:54:26.771Z,-5.20
2019-01-21T03:57:17.307Z,-5.30
2019-01-21T04:00:08.112Z,-5.30
2019-01-21T04:03:17.623Z,-5.40
2019-01-21T04:06:08.582Z,-5.40
2019-01-21T04:09:14.651Z,-5.50
2019-01-21T04:12:12.633Z,-5.50
2019-01-21T04:15:21.945Z,-5.50
2019-01-21T04:18:24.614Z,-5.50
2019-01-21T04:21:26.595Z,-5.60
2019-01-21T04:24:23.393Z,-5.60
2019-01-21T04:27:17.573Z,-5.70
2019-01-21T04:30:20.425Z,-5.70
2019-01-21T04:33:20.114Z,-5.80
2019-01-21T04:36:26.297Z,-5.80
2019-01-21T04:39:32.866Z,-5.80
2019-01-21T04:42:39.328Z,-5.80
2019-01-21T04:45:46.008Z,-5.80
2019-01-21T04:48:51.827Z,-5.90
2019-01-21T04:51:57.372Z,-6.00
2019-01-21T04:55:10.667Z,-6.00
2019-01-21T04:58:13.219Z,-6.10
2019-01-21T05:01:19.419Z,-6.10
2019-01-21T05:04:28.769Z,-6.10
2019-01-21T05:07:38.523Z,-6.00
2019-01-21T05:10:32.182Z,-6.10
2019-01-21T05:13:45.870Z,-6.00
2019-01-21T05:17:00.695Z,-5.90
2019-01-21T05:20:03.221Z,-5.80
2019-01-21T05:23:18.445Z,-5.90
2019-01-21T05:26:36.822Z,-5.90
2019-01-21T05:29:31.352Z,-6.00
2019-01-21T05:32:40.555Z,-6.20
2019-01-21T05:35:49.511Z,-6.20
2019-01-21T05:38:55.582Z,-6.20
2019-01-21T05:42:03.354Z,-6.40
2019-01-21T05:45:02.962Z,-6.40
2019-01-21T05:47:56.981Z,-6.30
2019-01-21T05:50:56.514Z,-6.30
2019-01-21T05:53:56.242Z,-6.40
2019-01-21T05:57:05.244Z,-6.40
2019-01-21T06:00:02.126Z,-6.50
2019-01-21T06:03:04.341Z,-6.40
2019-01-21T06:06:12.821Z,-6.50
2019-01-21T06:09:18.433Z,-6.60
2019-01-21T06:12:12.321Z,-6.60
2019-01-21T06:15:21.741Z,-6.70
2019-01-21T06:18:12.507Z,-6.80
2019-01-21T06:21:21.381Z,-6.90
2019-01-21T06:24:14.944Z,-6.90
2019-01-21T06:27:32.886Z,-6.90
2019-01-21T06:30:42.071Z,-6.90
2019-01-21T06:33:59.233Z,-6.90
2019-01-21T06:36:52.885Z,-6.90
2019-01-21T06:39:55.599Z,-6.90
2019-01-21T06:42:55.829Z,-6.70
2019-01-21T06:45:55.194Z,-6.70
2019-01-21T06:49:18.617Z,-6.80
2019-01-21T06:52:26.325Z,-7.00
2019-01-21T06:55:26.317Z,-7.20
2019-01-21T06:58:39.510Z,-7.20
2019-01-21T07:01:39.705Z,-7.30
2019-01-21T07:04:39.203Z,-7.30
2019-01-21T07:07:53.710Z,-7.30
2019-01-21T07:10:44.625Z,-7.30
2019-01-21T07:13:41.390Z,-7.10
2019-01-21T07:16:53.417Z,-7.20
2019-01-21T07:19:50.027Z,-7.20
2019-01-21T07:22:43.051Z,-7.20
2019-01-21T07:25:39.832Z,-7.10
2019-01-21T07:28:33.801Z,-7.20
2019-01-21T07:31:31.246Z,-7.10
2019-01-21T07:34:31.430Z,-7.00
2019-01-21T07:37:31.199Z,-7.00
2019-01-21T07:40:27.961Z,-6.90
2019-01-21T07:43:19.453Z,-6.80
2019-01-21T07:46:16.800Z,-6.60
2019-01-21T07:49:31.538Z,-6.50
2019-01-21T07:52:40.596Z,-6.30
2019-01-21T07:56:02.030Z,-6.30
2019-01-21T07:59:02.013Z,-6.30
2019-01-21T08:02:23.886Z,-6.20
2019-01-21T08:05:24.045Z,-6.10
2019-01-21T08:08:20.402Z,-6.10
2019-01-21T08:11:23.522Z,-6.00
2019-01-21T08:14:22.881Z,-5.90
2019-01-21T08:17:42.667Z,-5.80
2019-01-21T08:20:42.219Z,-5.70
2019-01-21T08:23:39.177Z,-5.70
2019-01-21T08:26:32.769Z,-5.60
2019-01-21T08:29:32.797Z,-5.60
2019-01-21T08:32:35.522Z,-5.60
2019-01-21T08:35:30.050Z,-5.40
2019-01-21T08:38:26.474Z,-5.40
2019-01-21T08:41:20.382Z,-5.30
2019-01-21T08:44:31.399Z,-5.30
2019-01-21T08:47:37.874Z,-5.30
2019-01-21T08:50:28.962Z,-5.30
2019-01-21T08:53:29.273Z,-5.10
2019-01-21T08:56:29.037Z,-5.00
2019-01-21T08:59:34.839Z,-5.00
2019-01-21T09:02:32.234Z,-5.00
2019-01-21T09:05:23.421Z,-5.00
2019-01-21T09:08:37.830Z,-5.00
2019-01-21T09:11:38.085Z,-4.90
2019-01-21T09:14:46.750Z,-4.70
2019-01-21T09:17:43.197Z,-4.60
2019-01-21T09:21:05.842Z,-4.50
2019-01-21T09:23:59.333Z,-4.40
2019-01-21T09:26:59.677Z,-4.30
2019-01-21T09:29:56.711Z,-4.20
2019-01-21T09:33:00.026Z,-4.00
2019-01-21T09:35:53.529Z,-3.90
2019-01-21T09:38:50.818Z,-3.90
2019-01-21T09:41:44.661Z,-3.80
2019-01-21T09:44:38.744Z,-3.70
2019-01-21T09:47:25.478Z,-3.60
2019-01-21T09:50:13.218Z,-3.60
2019-01-21T09:53:01.341Z,-3.70
2019-01-21T09:55:51.740Z,-3.60
2019-01-21T09:58:41.419Z,-3.60
2019-01-21T10:01:31.213Z,-3.40
2019-01-21T10:04:22.129Z,-3.30
2019-01-21T10:07:25.492Z,-3.30
2019-01-21T10:10:35.123Z,-3.10
2019-01-21T10:13:41.357Z,-3.00
2019-01-21T10:16:49.262Z,-2.80
2019-01-21T10:19:56.964Z,-2.70
2019-01-21T10:22:54.629Z,-2.70
2019-01-21T10:25:48.333Z,-2.60
2019-01-21T10:28:45.774Z,-2.40
2019-01-21T10:31:37.231Z,-2.50
2019-01-21T10:34:30.969Z,-2.50
2019-01-21T10:37:46.326Z,-2.50
2019-01-21T10:40:40.174Z,-2.40
2019-01-21T10:43:46.030Z,-2.40
2019-01-21T10:46:58.192Z,-2.30
2019-01-21T10:50:04.050Z,-2.00
2019-01-21T10:53:04.273Z,-2.00
2019-01-21T10:56:07.604Z,-2.00
2019-01-21T10:59:16.557Z,-1.90
2019-01-21T11:02:23.611Z,-1.80
2019-01-21T11:05:33.049Z,-1.60
2019-01-21T11:08:23.661Z,-1.50
2019-01-21T11:11:30.750Z,-1.60
2019-01-21T11:14:33.752Z,-1.50
2019-01-21T11:17:27.616Z,-1.30
2019-01-21T11:20:33.921Z,-1.20
2019-01-21T11:23:27.703Z,-1.20
2019-01-21T11:26:46.035Z,-1.30
2019-01-21T11:29:42.758Z,-1.30
2019-01-21T11:32:42.907Z,-1.40
2019-01-21T11:35:48.985Z,-1.20
2019-01-21T11:38:46.124Z,-1.10
2019-01-21T11:41:42.571Z,-1.10
2019-01-21T11:44:48.313Z,-1.00
2019-01-21T11:47:48.489Z,-1.00
2019-01-21T11:50:54.451Z,-1.00
2019-01-21T11:53:57.017Z,-0.80
2019-01-21T11:57:05.782Z,-0.70
2019-01-21T12:00:14.737Z,-0.70
2019-01-21T12:03:23.602Z,-0.60
2019-01-21T12:06:11.021Z,-0.50
2019-01-21T12:09:07.677Z,-0.40
2019-01-21T12:12:01.545Z,-0.30
2019-01-21T12:14:58.609Z,-0.20
2019-01-21T12:17:56.246Z,0.00
2019-01-21T12:21:06.918Z,0.10
2019-01-21T12:24:04.317Z,0.10
2019-01-21T12:27:13.181Z,0.00
2019-01-21T12:30:21.553Z,0.00
2019-01-21T12:33:25.190Z,0.10
2019-01-21T12:36:15.969Z,0.20
2019-01-21T12:39:21.753Z,0.30
2019-01-21T12:42:18.162Z,0.30
2019-01-21T12:45:27.319Z,0.50
2019-01-21T12:48:23.762Z,0.50
2019-01-21T12:51:17.625Z,0.70
2019-01-21T12:54:17.863Z,0.80
2019-01-21T12:57:34.777Z,1.00
2019-01-21T13:00:31.223Z,0.90
2019-01-21T13:03:47.835Z,0.90
2019-01-21T13:06:38.553Z,0.80
2019-01-21T13:09:56.753Z,0.70
2019-01-21T13:12:53.407Z,0.80
2019-01-21T13:16:02.712Z,1.00
2019-01-21T13:18:53.673Z,1.10
2019-01-21T13:21:50.354Z,1.20
2019-01-21T13:24:59.729Z,1.20
2019-01-21T13:28:05.893Z,1.20
2019-01-21T13:31:03.013Z,1.30
2019-01-21T13:34:22.710Z,1.30
2019-01-21T13:37:31.793Z,1.20
2019-01-21T13:40:43.653Z,1.30
2019-01-21T13:43:37.398Z,1.40
2019-01-21T13:46:43.823Z,1.40
2019-01-21T13:49:46.445Z,1.50
2019-01-21T13:52:53.909Z,1.60
2019-01-21T13:56:01.329Z,1.60
2019-01-21T13:59:23.381Z,1.60
2019-01-21T14:02:17.517Z,1.40
2019-01-21T14:05:20.838Z,1.30
2019-01-21T14:08:11.647Z,1.40
2019-01-21T14:11:21.053Z,1.30
2019-01-21T14:14:17.732Z,1.10
2019-01-21T14:17:14.363Z,0.90
2019-01-21T14:20:16.889Z,0.70
2019-01-21T14:23:10.573Z,0.60
2019-01-21T14:26:03.809Z,0.50
2019-01-21T14:29:14.033Z,0.50
2019-01-21T14:32:27.603Z,0.40
2019-01-21T14:35:18.789Z,0.30
2019-01-21T14:38:24.953Z,0.30
2019-01-21T14:41:16.032Z,0.20
2019-01-21T14:44:27.093Z,0.10
2019-01-21T14:47:23.703Z,0.10
2019-01-21T14:50:35.845Z,0.20
2019-01-21T14:53:32.981Z,0.20
2019-01-21T14:56:45.036Z,0.00
2019-01-21T14:59:52.461Z,0.00
2019-01-21T15:02:48.811Z,-0.10
2019-01-21T15:05:57.011Z,-0.20
2019-01-21T15:08:53.964Z,-0.30
2019-01-21T15:11:51.020Z,-0.40
2019-01-21T15:15:10.886Z,-0.40
2019-01-21T15:18:25.550Z,-0.40
2019-01-21T15:21:28.729Z,-0.40
2019-01-21T15:24:22.713Z,-0.30
2019-01-21T15:27:22.019Z,-0.30
2019-01-21T15:30:24.862Z,-0.40
2019-01-21T15:33:36.408Z,-0.50
2019-01-21T15:36:47.370Z,-0.60
2019-01-21T15:39:58.305Z,-0.70
2019-01-21T15:43:16.922Z,-0.70
2019-01-21T15:46:37.145Z,-0.70
2019-01-21T15:49:33.989Z,-0.70
2019-01-21T15:52:25.098Z,-0.80
2019-01-21T15:55:31.245Z,-0.90
2019-01-21T15:58:38.685Z,-1.00
2019-01-21T16:01:44.854Z,-1.20
2019-01-21T16:04:36.328Z,-1.40
2019-01-21T16:07:39.677Z,-1.50
2019-01-21T16:10:46.224Z,-1.70
2019-01-21T16:13:43.261Z,-1.90
2019-01-21T16:16:40.325Z,-2.00
2019-01-21T16:19:28.209Z,-2.20
2019-01-21T16:22:33.849Z,-2.30
2019-01-21T16:25:33.862Z,-2.40
2019-01-21T16:28:27.986Z,-2.40
2019-01-21T16:31:19.015Z,-2.60
2019-01-21T16:34:32.782Z,-2.60
2019-01-21T16:37:32.709Z,-2.70
2019-01-21T16:40:29.628Z,-2.80
2019-01-21T16:43:17.725Z,-2.80
2019-01-21T16:46:05.686Z,-2.90
2019-01-21T16:48:53.665Z,-3.00
2019-01-21T16:51:41.544Z,-3.10
2019-01-21T16:54:29.522Z,-3.10
2019-01-21T16:57:17.460Z,-3.20
2019-01-21T17:00:11.352Z,-3.20
2019-01-21T17:02:59.132Z,-3.20
2019-01-21T17:05:46.807Z,-3.30
2019-01-21T17:08:34.894Z,-3.30
2019-01-21T17:11:22.608Z,-3.30
2019-01-21T17:14:11.337Z,-3.30
2019-01-21T17:16:58.909Z,-3.30
2019-01-21T17:19:47.016Z,-3.40
2019-01-21T17:22:34.846Z,-3.50
2019-01-21T17:25:22.654Z,-3.60
2019-01-21T17:28:10.325Z,-3.60
2019-01-21T17:30:58.383Z,-3.70
2019-01-21T17:33:46.285Z,-3.70
2019-01-21T17:36:34.246Z,-3.80
2019-01-21T17:39:22.265Z,-3.80
2019-01-21T17:42:10.137Z,-3.90
2019-01-21T17:44:57.957Z,-4.00
2019-01-21T17:47:45.542Z,-4.00
2019-01-21T17:50:33.425Z,-4.10
2019-01-21T17:53:21.100Z,-4.10
2019-01-21T17:56:08.794Z,-4.20
2019-01-21T17:58:56.685Z,-4.20
2019-01-21T18:01:44.661Z,-4.30
2019-01-21T18:04:32.662Z,-4.30
2019-01-21T18:07:20.284Z,-4.40
2019-01-21T18:10:11.006Z,-4.40
2019-01-21T18:12:58.836Z,-4.50
2019-01-21T18:15:46.837Z,-4.50
2019-01-21T18:18:34.797Z,-4.60
2019-01-21T18:21:22.517Z,-4.60
2019-01-21T18:24:10.447Z,-4.60
2019-01-21T18:26:58.573Z,-4.60
2019-01-21T18:29:46.190Z,-4.60
2019-01-21T18:32:33.916Z,-4.70
2019-01-21T18:35:21.784Z,-4.70
2019-01-21T18:38:10.009Z,-4.70
2019-01-21T18:40:57.910Z,-4.70
2019-01-21T18:43:45.781Z,-4.80
2019-01-21T18:46:33.694Z,-4.90
2019-01-21T18:49:22.945Z,-4.80
2019-01-21T18:52:10.947Z,-4.60
2019-01-21T18:54:58.541Z,-4.60
2019-01-21T18:57:46.557Z,-4.80
2019-01-21T19:00:34.408Z,-4.90
2019-01-21T19:03:21.977Z,-5.10
2019-01-21T19:06:09.597Z,-5.20
2019-01-21T19:08:57.167Z,-5.30
2019-01-21T19:11:45.208Z,-5.40
2019-01-21T19:14:33.027Z,-5.40
2019-01-21T19:17:20.920Z,-5.40
2019-01-21T19:20:11.646Z,-5.10
2019-01-21T19:22:59.287Z,-5.10
2019-01-21T19:25:47.338Z,-5.20
2019-01-21T19:28:35.238Z,-5.40
2019-01-21T19:31:22.952Z,-5.50
2019-01-21T19:34:10.921Z,-5.60
2019-01-21T19:36:58.905Z,-5.70
2019-01-21T19:39:46.601Z,-5.70
2019-01-21T19:42:34.533Z,-5.80
2019-01-21T19:45:22.556Z,-5.80
2019-01-21T19:48:10.393Z,-5.90
2019-01-21T19:50:58.273Z,-5.90
2019-01-21T19:53:46.145Z,-5.80
2019-01-21T19:56:33.719Z,-5.90
2019-01-21T19:59:22.255Z,-5.90
2019-01-21T20:02:09.747Z,-5.80
2019-01-21T20:04:57.545Z,-5.80
2019-01-21T20:07:45.193Z,-5.90
2019-01-21T20:10:32.658Z,-5.90
2019-01-21T20:13:20.458Z,-5.90
2019-01-21T20:16:08.380Z,-6.00
2019-01-21T20:18:56.493Z,-6.00
2019-01-21T20:21:44.105Z,-6.00
2019-01-21T20:24:32.187Z,-6.00
2019-01-21T20:27:19.813Z,-6.00
2019-01-21T20:30:16.757Z,-5.80
2019-01-21T20:33:04.837Z,-5.70
2019-01-21T20:35:52.627Z,-5.70
2019-01-21T20:38:40.569Z,-5.40
2019-01-21T20:41:28.486Z,-5.20
2019-01-21T20:44:16.248Z,-5.10
2019-01-21T20:47:04.140Z,-5.00
2019-01-21T20:49:51.965Z,-5.00
2019-01-21T20:52:39.897Z,-4.90
2019-01-21T20:55:27.731Z,-5.00
2019-01-21T20:58:16.041Z,-5.10
2019-01-21T21:01:04.079Z,-5.30
2019-01-21T21:03:51.905Z,-5.20
2019-01-21T21:06:39.783Z,-5.40
2019-01-21T21:09:27.625Z,-5.60
2019-01-21T21:12:15.164Z,-5.60
2019-01-21T21:15:03.017Z,-5.80
2019-01-21T21:17:50.651Z,-5.80
2019-01-21T21:20:38.653Z,-5.80
2019-01-21T21:23:26.254Z,-5.80
2019-01-21T21:26:14.114Z,-5.90
2019-01-21T21:29:01.987Z,-6.00
2019-01-21T21:31:49.922Z,-6.00
2019-01-21T21:34:37.577Z,-6.00
2019-01-21T21:37:25.386Z,-6.00
2019-01-21T21:40:18.793Z,-6.00
2019-01-21T21:43:06.502Z,-6.00
2019-01-21T21:45:54.670Z,-5.90
2019-01-21T21:48:42.281Z,-5.80
2019-01-21T21:51:30.210Z,-5.80
2019-01-21T21:54:17.780Z,-5.90
2019-01-21T21:57:05.562Z,-5.90
2019-01-21T22:00:08.390Z,-5.90
2019-01-21T22:02:56.501Z,-5.90
2019-01-21T22:05:44.277Z,-6.10
2019-01-21T22:08:32.305Z,-6.30
2019-01-21T22:11:20.140Z,-6.40
2019-01-21T22:14:07.942Z,-6.30
2019-01-21T22:16:55.750Z,-6.30
2019-01-21T22:19:43.649Z,-6.30
2019-01-21T22:22:34.825Z,-6.30
2019-01-21T22:25:21.505Z,-6.10
2019-01-21T22:28:09.209Z,-6.10
2019-01-21T22:30:57.360Z,-6.20
2019-01-21T22:33:45.297Z,-6.40
2019-01-21T22:36:33.065Z,-6.40
2019-01-21T22:42:08.161Z,-6.60
2019-01-21T22:44:56.208Z,-6.60
2019-01-21T22:47:43.784Z,-6.50
2019-01-21T22:50:31.956Z,-6.40
2019-01-21T22:53:19.878Z,-6.50
2019-01-21T22:56:07.638Z,-6.70
2019-01-21T22:58:55.364Z,-6.80
2019-01-21T23:01:43.351Z,-6.90
2019-01-21T23:04:33.136Z,-6.90
2019-01-21T23:07:20.930Z,-6.90
2019-01-21T23:10:09.320Z,-6.90
2019-01-21T23:12:57.214Z,-7.00
2019-01-21T23:15:45.098Z,-7.00
2019-01-21T23:18:32.646Z,-7.00
2019-01-21T23:21:20.297Z,-7.00
2019-01-21T23:24:07.922Z,-7.00
2019-01-21T23:26:55.955Z,-6.90
2019-01-21T23:29:43.905Z,-7.00
2019-01-21T23:32:32.125Z,-7.10
2019-01-21T23:35:19.925Z,-7.10
2019-01-21T23:38:07.989Z,-7.20
2019-01-21T23:40:55.882Z,-7.20
2019-01-21T23:43:43.893Z,-7.30
2019-01-21T23:46:31.765Z,-7.30
2019-01-21T23:49:19.531Z,-7.20
2019-01-21T23:52:07.648Z,-7.20
2019-01-21T23:54:55.343Z,-7.10
2019-01-21T23:57:43.347Z,-7.20
